createdAt,value
2017-10-19T00:01:26.118Z,10.37
2017-10-19T00:03:54.493Z,10.46
2017-10-19T00:06:22.864Z,10.50
2017-10-19T00:08:51.229Z,10.45
2017-10-19T00:11:19.590Z,10.58
2017-10-19T00:13:47.968Z,10.54
2017-10-19T00:16:16.351Z,10.51
2017-10-19T00:18:44.737Z,10.29
2017-10-19T00:21:13.106Z,10.43
2017-10-19T00:23:41.483Z,10.40
2017-10-19T00:26:09.850Z,10.48
2017-10-19T00:28:38.213Z,10.56
2017-10-19T00:31:06.580Z,10.56
2017-10-19T00:33:34.955Z,10.60
2017-10-19T00:36:03.316Z,10.40
2017-10-19T00:38:31.686Z,10.58
2017-10-19T00:41:00.057Z,10.66
2017-10-19T00:43:28.429Z,10.68
2017-10-19T00:45:56.809Z,10.64
2017-10-19T00:48:25.185Z,10.65
2017-10-19T00:50:53.550Z,10.63
2017-10-19T00:53:21.918Z,10.64
2017-10-19T00:55:50.294Z,10.52
2017-10-19T00:58:18.669Z,10.51
2017-10-19T01:00:47.028Z,10.52
2017-10-19T01:03:15.395Z,10.60
2017-10-19T01:05:44.529Z,10.51
2017-10-19T01:08:12.916Z,10.47
2017-10-19T01:10:41.286Z,10.47
2017-10-19T01:13:09.662Z,10.50
2017-10-19T01:15:38.035Z,10.42
2017-10-19T01:18:06.418Z,10.37
2017-10-19T01:20:35.112Z,10.36
2017-10-19T01:23:03.482Z,10.36
2017-10-19T01:25:31.857Z,10.34
2017-10-19T01:28:00.236Z,10.30
2017-10-19T01:30:28.599Z,10.26
2017-10-19T01:32:56.976Z,10.36
2017-10-19T01:35:25.345Z,10.30
2017-10-19T01:37:53.760Z,10.23
2017-10-19T01:40:22.128Z,10.03
2017-10-19T01:42:50.604Z,10.17
2017-10-19T01:45:18.965Z,10.10
2017-10-19T01:47:47.348Z,10.02
2017-10-19T01:50:15.711Z,9.50
2017-10-19T01:52:44.061Z,9.81
2017-10-19T01:55:12.433Z,9.91
2017-10-19T01:57:40.784Z,9.96
2017-10-19T02:00:09.152Z,10.07
2017-10-19T02:02:37.510Z,10.10
2017-10-19T02:05:05.872Z,10.15
2017-10-19T02:07:34.242Z,10.12
2017-10-19T02:10:03.449Z,10.09
2017-10-19T02:12:32.585Z,9.98
2017-10-19T02:15:00.938Z,9.84
2017-10-19T02:17:29.293Z,9.84
2017-10-19T02:19:57.656Z,9.70
2017-10-19T02:22:26.028Z,9.78
2017-10-19T02:24:54.404Z,9.78
2017-10-19T02:27:22.797Z,9.77
2017-10-19T02:29:51.163Z,9.79
2017-10-19T02:32:19.527Z,9.54
2017-10-19T02:34:47.901Z,9.66
2017-10-19T02:37:19.881Z,9.76
2017-10-19T02:39:48.433Z,9.80
2017-10-19T02:42:16.787Z,9.85
2017-10-19T02:44:45.136Z,9.89
2017-10-19T02:47:13.504Z,9.99
2017-10-19T02:49:41.860Z,10.00
2017-10-19T02:52:10.218Z,10.07
2017-10-19T02:54:38.588Z,10.07
2017-10-19T02:57:06.955Z,10.03
2017-10-19T02:59:35.337Z,10.07
2017-10-19T03:02:03.693Z,9.96
2017-10-19T03:04:32.804Z,9.99
2017-10-19T03:07:01.157Z,9.97
2017-10-19T03:09:29.533Z,10.03
2017-10-19T03:11:57.905Z,10.07
2017-10-19T03:14:26.320Z,10.08
2017-10-19T03:16:54.680Z,9.99
2017-10-19T03:19:23.054Z,10.04
2017-10-19T03:21:51.437Z,10.03
2017-10-19T03:24:19.798Z,10.02
2017-10-19T03:26:48.551Z,10.05
2017-10-19T03:29:16.934Z,10.06
2017-10-19T03:31:46.433Z,9.90
2017-10-19T03:34:14.786Z,9.97
2017-10-19T03:36:43.141Z,9.85
2017-10-19T03:39:12.261Z,9.89
2017-10-19T03:41:40.626Z,9.80
2017-10-19T03:44:08.986Z,9.70
2017-10-19T03:46:37.349Z,9.62
2017-10-19T03:49:05.712Z,9.76
2017-10-19T03:51:34.071Z,9.75
2017-10-19T03:54:02.458Z,9.80
2017-10-19T03:56:30.845Z,9.88
2017-10-19T03:58:59.225Z,9.93
2017-10-19T04:01:27.588Z,9.83
2017-10-19T04:03:55.945Z,9.87
2017-10-19T04:06:24.324Z,9.70
2017-10-19T04:08:52.682Z,9.74
2017-10-19T04:11:21.826Z,9.86
2017-10-19T04:13:50.208Z,9.78
2017-10-19T04:16:18.585Z,9.75
2017-10-19T04:18:46.960Z,9.78
2017-10-19T04:21:15.345Z,9.87
2017-10-19T04:23:43.704Z,9.96
2017-10-19T04:26:12.052Z,9.98
2017-10-19T04:28:40.408Z,9.94
2017-10-19T04:31:08.766Z,9.98
2017-10-19T04:33:37.128Z,10.00
2017-10-19T04:36:05.482Z,9.99
2017-10-19T04:38:33.854Z,9.37
2017-10-19T04:41:02.214Z,9.54
2017-10-19T04:43:31.334Z,9.69
2017-10-19T04:45:59.707Z,9.75
2017-10-19T04:48:28.077Z,9.64
2017-10-19T04:50:56.442Z,9.47
2017-10-19T04:53:24.815Z,9.64
2017-10-19T04:55:53.182Z,9.66
2017-10-19T04:58:21.555Z,9.67
2017-10-19T05:00:49.914Z,9.69
2017-10-19T05:03:18.272Z,9.74
2017-10-19T05:05:46.633Z,9.75
2017-10-19T05:08:14.991Z,9.63
2017-10-19T05:10:44.131Z,9.48
2017-10-19T05:13:12.495Z,9.62
2017-10-19T05:15:40.859Z,9.60
2017-10-19T05:18:09.220Z,9.69
2017-10-19T05:20:37.576Z,9.68
2017-10-19T05:23:05.940Z,9.68
2017-10-19T05:25:34.312Z,9.67
2017-10-19T05:28:02.681Z,9.65
2017-10-19T05:30:31.053Z,9.56
2017-10-19T05:32:59.432Z,9.14
2017-10-19T05:35:27.789Z,9.08
2017-10-19T05:37:57.021Z,9.23
2017-10-19T05:40:25.398Z,9.26
2017-10-19T05:42:53.760Z,9.34
2017-10-19T05:45:22.120Z,9.44
2017-10-19T05:47:50.488Z,9.40
2017-10-19T05:50:18.844Z,9.38
2017-10-19T05:52:47.975Z,9.16
2017-10-19T05:55:16.329Z,9.29
2017-10-19T05:57:45.447Z,9.35
2017-10-19T06:00:13.814Z,9.42
2017-10-19T06:02:42.188Z,9.50
2017-10-19T06:05:10.571Z,9.49
2017-10-19T06:07:38.932Z,9.44
2017-10-19T06:10:08.549Z,9.53
2017-10-19T06:12:36.923Z,9.57
2017-10-19T06:15:05.288Z,9.58
2017-10-19T06:17:34.583Z,9.66
2017-10-19T06:20:02.945Z,9.59
2017-10-19T06:22:31.312Z,9.58
2017-10-19T06:24:59.665Z,9.51
2017-10-19T06:27:28.030Z,9.50
2017-10-19T06:29:56.385Z,9.31
2017-10-19T06:32:24.749Z,9.44
2017-10-19T06:34:53.117Z,9.53
2017-10-19T06:37:21.494Z,9.51
2017-10-19T06:39:49.865Z,9.60
2017-10-19T06:42:18.251Z,9.54
2017-10-19T06:44:46.627Z,9.50
2017-10-19T06:47:15.003Z,9.45
2017-10-19T06:49:43.376Z,9.59
2017-10-19T06:52:11.753Z,9.44
2017-10-19T06:54:40.116Z,9.49
2017-10-19T06:57:08.479Z,9.50
2017-10-19T06:59:36.852Z,9.58
2017-10-19T07:02:05.209Z,9.70
2017-10-19T07:04:33.581Z,9.81
2017-10-19T07:07:01.949Z,9.90
2017-10-19T07:09:30.300Z,9.96
2017-10-19T07:11:58.662Z,9.91
2017-10-19T07:14:27.030Z,9.99
2017-10-19T07:16:55.401Z,10.02
2017-10-19T07:19:23.774Z,10.15
2017-10-19T07:21:52.157Z,10.05
2017-10-19T07:24:20.545Z,10.15
2017-10-19T07:26:48.909Z,10.28
2017-10-19T07:29:17.298Z,10.41
2017-10-19T07:31:45.668Z,10.46
2017-10-19T07:34:14.044Z,10.56
2017-10-19T07:36:42.814Z,10.09
2017-10-19T07:39:11.189Z,10.21
2017-10-19T07:41:39.558Z,10.32
2017-10-19T07:44:07.929Z,10.12
2017-10-19T07:46:36.297Z,10.26
2017-10-19T07:49:04.674Z,10.26
2017-10-19T07:51:33.759Z,9.95
2017-10-19T07:54:02.947Z,9.95
2017-10-19T07:56:31.361Z,10.17
2017-10-19T07:59:00.602Z,10.28
2017-10-19T08:01:28.980Z,10.45
2017-10-19T08:03:57.349Z,10.59
2017-10-19T08:06:25.729Z,10.47
2017-10-19T08:08:54.210Z,10.32
2017-10-19T08:11:22.591Z,10.57
2017-10-19T08:13:50.974Z,10.71
2017-10-19T08:16:19.352Z,10.70
2017-10-19T08:18:47.717Z,10.53
2017-10-19T08:21:16.100Z,10.74
2017-10-19T08:23:44.466Z,10.80
2017-10-19T08:26:13.643Z,11.00
2017-10-19T08:28:42.017Z,11.00
2017-10-19T08:31:10.381Z,11.11
2017-10-19T08:33:38.744Z,11.01
2017-10-19T08:36:07.130Z,11.30
2017-10-19T08:38:35.507Z,11.54
2017-10-19T08:41:03.876Z,11.31
2017-10-19T08:43:32.243Z,11.30
2017-10-19T08:46:00.604Z,11.63
2017-10-19T08:48:30.534Z,11.72
2017-10-19T08:50:58.901Z,11.97
2017-10-19T08:53:27.308Z,12.18
2017-10-19T08:55:56.373Z,12.37
2017-10-19T08:58:28.025Z,12.27
2017-10-19T09:00:57.164Z,12.26
2017-10-19T09:03:25.533Z,12.38
2017-10-19T09:05:53.913Z,12.51
2017-10-19T09:08:23.873Z,12.53
2017-10-19T09:10:52.298Z,12.39
2017-10-19T09:13:20.669Z,12.75
2017-10-19T09:15:49.042Z,12.97
2017-10-19T09:18:17.421Z,13.01
2017-10-19T09:20:45.799Z,13.15
2017-10-19T09:23:14.181Z,13.16
2017-10-19T09:25:42.565Z,13.34
2017-10-19T09:28:10.936Z,13.37
2017-10-19T09:31:05.839Z,13.41
2017-10-19T09:33:34.220Z,13.31
2017-10-19T09:36:09.419Z,13.48
2017-10-19T09:38:37.792Z,13.80
2017-10-19T09:41:07.058Z,13.85
2017-10-19T09:43:35.433Z,14.08
2017-10-19T09:46:03.826Z,14.25
2017-10-19T09:48:32.196Z,14.53
2017-10-19T09:51:00.590Z,14.65
2017-10-19T09:53:28.962Z,14.89
2017-10-19T09:55:59.275Z,14.99
2017-10-19T09:58:27.650Z,15.18
2017-10-19T10:00:56.017Z,15.27
2017-10-19T10:03:24.392Z,15.41
2017-10-19T10:05:52.770Z,15.58
2017-10-19T10:08:21.193Z,15.67
2017-10-19T10:10:49.572Z,15.88
2017-10-19T10:13:17.954Z,16.04
2017-10-19T10:15:46.350Z,16.01
2017-10-19T10:18:15.482Z,16.34
2017-10-19T10:20:43.849Z,16.44
2017-10-19T10:23:12.229Z,16.49
2017-10-19T10:25:40.599Z,16.65
2017-10-19T10:28:09.129Z,16.90
2017-10-19T10:30:37.494Z,16.95
2017-10-19T10:33:05.871Z,16.75
2017-10-19T10:35:34.249Z,16.85
2017-10-19T10:38:02.834Z,16.82
2017-10-19T10:40:31.291Z,16.66
2017-10-19T10:42:59.653Z,16.79
2017-10-19T10:45:28.036Z,17.00
2017-10-19T10:47:56.479Z,17.04
2017-10-19T10:50:24.901Z,16.73
2017-10-19T10:52:53.265Z,16.72
2017-10-19T10:55:21.660Z,16.70
2017-10-19T10:57:50.030Z,16.86
2017-10-19T11:00:18.408Z,17.21
2017-10-19T11:02:46.782Z,17.43
2017-10-19T11:05:15.161Z,17.43
2017-10-19T11:07:43.529Z,17.15
2017-10-19T11:10:12.676Z,17.39
2017-10-19T11:12:41.051Z,17.67
2017-10-19T11:15:09.422Z,17.66
2017-10-19T11:17:37.779Z,17.62
2017-10-19T11:20:06.146Z,17.66
2017-10-19T11:22:34.526Z,17.80
2017-10-19T11:25:03.661Z,17.95
2017-10-19T11:27:33.022Z,17.74
2017-10-19T11:30:01.390Z,17.73
2017-10-19T11:32:29.782Z,18.16
2017-10-19T11:34:58.153Z,18.49
2017-10-19T11:37:26.533Z,19.00
2017-10-19T11:39:54.899Z,19.21
2017-10-19T11:42:23.306Z,19.60
2017-10-19T11:44:51.672Z,19.81
2017-10-19T11:47:20.041Z,20.28
2017-10-19T11:49:48.432Z,20.50
2017-10-19T11:52:16.805Z,20.85
2017-10-19T11:54:45.314Z,20.69
2017-10-19T11:57:13.752Z,20.74
2017-10-19T11:59:42.141Z,20.83
2017-10-19T12:02:10.510Z,20.81
2017-10-19T12:04:38.883Z,21.15
2017-10-19T12:07:07.251Z,20.63
2017-10-19T12:09:35.625Z,20.90
2017-10-19T12:12:03.988Z,21.28
2017-10-19T12:14:32.357Z,21.15
2017-10-19T12:17:00.728Z,21.40
2017-10-19T12:19:29.086Z,21.93
2017-10-19T12:21:57.469Z,22.19
2017-10-19T12:24:25.843Z,22.58
2017-10-19T12:26:54.205Z,22.65
2017-10-19T12:29:24.442Z,22.55
2017-10-19T12:31:52.813Z,22.57
2017-10-19T12:34:21.217Z,22.14
2017-10-19T12:36:49.573Z,22.71
2017-10-19T12:39:17.938Z,23.13
2017-10-19T12:41:47.089Z,23.06
2017-10-19T12:44:16.378Z,23.12
2017-10-19T12:46:44.761Z,23.84
2017-10-19T12:49:13.145Z,23.74
2017-10-19T12:51:41.522Z,23.69
2017-10-19T12:54:09.895Z,23.85
2017-10-19T12:56:38.273Z,24.02
2017-10-19T12:59:06.645Z,23.97
2017-10-19T13:01:35.039Z,24.31
2017-10-19T13:04:03.409Z,24.71
2017-10-19T13:06:31.775Z,24.39
2017-10-19T13:09:00.151Z,24.14
2017-10-19T13:11:28.516Z,24.41
2017-10-19T13:13:56.884Z,24.42
2017-10-19T13:16:25.264Z,24.98
2017-10-19T13:18:53.630Z,24.71
2017-10-19T13:21:22.759Z,25.21
2017-10-19T13:23:51.121Z,25.40
2017-10-19T13:26:19.499Z,25.15
2017-10-19T13:28:48.525Z,25.15
2017-10-19T13:31:16.949Z,25.79
2017-10-19T13:33:46.093Z,26.23
2017-10-19T13:36:14.474Z,26.25
2017-10-19T13:38:42.847Z,26.36
2017-10-19T13:41:11.232Z,26.45
2017-10-19T13:43:39.606Z,27.01
2017-10-19T13:46:08.633Z,27.24
2017-10-19T13:48:36.999Z,26.81
2017-10-19T13:51:05.376Z,26.46
2017-10-19T13:53:33.743Z,26.28
2017-10-19T13:56:04.247Z,25.99
2017-10-19T13:58:32.613Z,25.54
2017-10-19T14:01:00.992Z,25.21
2017-10-19T14:03:29.369Z,25.04
2017-10-19T14:05:57.745Z,24.51
2017-10-19T14:08:26.879Z,24.64
2017-10-19T14:10:55.253Z,24.99
2017-10-19T14:13:23.629Z,25.18
2017-10-19T14:15:53.749Z,24.82
2017-10-19T14:18:22.119Z,24.82
2017-10-19T14:20:50.490Z,24.78
2017-10-19T14:23:18.878Z,25.34
2017-10-19T14:25:47.253Z,25.54
2017-10-19T14:28:15.617Z,26.26
2017-10-19T14:30:43.972Z,26.67
2017-10-19T14:33:12.345Z,26.83
2017-10-19T14:35:40.713Z,26.49
2017-10-19T14:38:09.105Z,26.48
2017-10-19T14:40:37.485Z,25.32
2017-10-19T14:43:05.861Z,25.17
2017-10-19T14:45:34.233Z,25.50
2017-10-19T14:48:02.653Z,25.46
2017-10-19T14:50:31.026Z,25.31
2017-10-19T14:52:59.399Z,24.65
2017-10-19T14:55:27.782Z,24.61
2017-10-19T14:57:56.166Z,24.88
2017-10-19T15:00:25.400Z,25.26
2017-10-19T15:02:53.766Z,25.20
2017-10-19T15:05:22.136Z,25.26
2017-10-19T15:07:50.509Z,25.20
2017-10-19T15:10:18.873Z,25.16
2017-10-19T15:12:47.249Z,24.91
2017-10-19T15:15:15.620Z,24.81
2017-10-19T15:17:44.823Z,24.61
2017-10-19T15:20:14.061Z,24.80
2017-10-19T15:22:42.433Z,24.87
2017-10-19T15:25:10.799Z,24.92
2017-10-19T15:27:39.165Z,24.96
2017-10-19T15:30:07.521Z,24.39
2017-10-19T15:32:35.914Z,24.06
2017-10-19T15:35:04.290Z,23.85
2017-10-19T15:37:32.666Z,23.62
2017-10-19T15:40:01.048Z,23.24
2017-10-19T15:42:29.462Z,22.82
2017-10-19T15:44:57.837Z,22.37
2017-10-19T15:47:26.221Z,22.28
2017-10-19T15:49:54.601Z,22.08
2017-10-19T15:52:22.978Z,21.84
2017-10-19T15:54:51.352Z,21.53
2017-10-19T15:57:19.737Z,21.18
2017-10-19T15:59:48.125Z,20.94
2017-10-19T16:02:17.005Z,20.82
2017-10-19T16:04:45.432Z,20.68
2017-10-19T16:07:13.805Z,20.47
2017-10-19T16:09:42.169Z,20.40
2017-10-19T16:12:10.542Z,20.31
2017-10-19T16:14:38.902Z,20.22
2017-10-19T16:17:07.287Z,20.08
2017-10-19T16:19:35.657Z,19.85
2017-10-19T16:22:04.025Z,19.74
2017-10-19T16:24:32.404Z,19.53
2017-10-19T16:27:00.778Z,19.27
2017-10-19T16:29:29.155Z,19.14
2017-10-19T16:31:57.522Z,19.08
2017-10-19T16:34:25.884Z,19.02
2017-10-19T16:36:56.538Z,18.96
2017-10-19T16:39:24.907Z,18.87
2017-10-19T16:41:53.826Z,18.74
2017-10-19T16:44:22.202Z,18.60
2017-10-19T16:46:50.565Z,18.47
2017-10-19T16:49:18.953Z,18.37
2017-10-19T16:54:14.968Z,18.02
2017-10-19T16:56:43.328Z,17.79
2017-10-19T16:59:11.705Z,17.58
2017-10-19T17:01:40.085Z,17.47
2017-10-19T17:04:08.458Z,17.26
2017-10-19T17:06:36.835Z,17.18
2017-10-19T17:09:05.213Z,16.97
2017-10-19T17:11:34.401Z,16.72
2017-10-19T17:14:02.766Z,16.51
2017-10-19T17:16:31.148Z,16.36
2017-10-19T17:18:59.526Z,16.41
2017-10-19T17:21:28.301Z,16.41
2017-10-19T17:23:56.665Z,16.35
2017-10-19T17:26:25.069Z,16.32
2017-10-19T17:28:53.447Z,16.25
2017-10-19T17:31:21.839Z,16.23
2017-10-19T17:33:50.217Z,16.11
2017-10-19T17:36:18.596Z,16.10
2017-10-19T17:38:46.973Z,15.97
2017-10-19T17:41:15.343Z,15.89
2017-10-19T17:43:43.722Z,15.95
2017-10-19T17:46:12.109Z,15.99
2017-10-19T17:48:40.484Z,16.02
2017-10-19T17:51:08.845Z,16.03
2017-10-19T17:53:37.205Z,16.00
2017-10-19T17:56:05.576Z,15.89
2017-10-19T17:58:33.941Z,15.84
2017-10-19T18:01:02.311Z,15.78
2017-10-19T18:03:31.609Z,15.72
2017-10-19T18:05:59.985Z,15.66
2017-10-19T18:08:28.417Z,15.59
2017-10-19T18:10:56.786Z,15.49
2017-10-19T18:13:25.194Z,15.33
2017-10-19T18:15:53.571Z,15.19
2017-10-19T18:18:21.986Z,15.19
2017-10-19T18:20:50.371Z,15.18
2017-10-19T18:23:18.744Z,15.18
2017-10-19T18:25:47.595Z,15.10
2017-10-19T18:28:16.005Z,15.06
2017-10-19T18:30:44.846Z,15.01
2017-10-19T18:33:14.054Z,14.89
2017-10-19T18:35:42.445Z,14.82
2017-10-19T18:38:11.182Z,14.81
2017-10-19T18:40:39.606Z,14.78
2017-10-19T18:43:09.901Z,14.80
2017-10-19T18:45:38.453Z,14.76
2017-10-19T18:48:06.859Z,14.62
2017-10-19T18:50:35.234Z,14.59
2017-10-19T18:53:06.099Z,14.65
2017-10-19T18:55:34.626Z,14.51
2017-10-19T18:58:04.071Z,14.50
2017-10-19T19:00:32.437Z,14.49
2017-10-19T19:03:00.805Z,14.54
2017-10-19T19:05:29.170Z,14.58
2017-10-19T19:07:57.558Z,14.58
2017-10-19T19:10:25.934Z,14.45
2017-10-19T19:12:54.325Z,14.41
2017-10-19T19:15:22.703Z,14.34
2017-10-19T19:17:51.085Z,14.25
2017-10-19T19:20:19.778Z,14.20
2017-10-19T19:22:48.425Z,14.16
2017-10-19T19:25:16.848Z,14.08
2017-10-19T19:27:45.249Z,14.04
2017-10-19T19:30:13.640Z,14.05
2017-10-19T19:32:42.792Z,14.08
2017-10-19T19:35:11.225Z,14.10
2017-10-19T19:37:39.596Z,14.09
2017-10-19T19:40:08.753Z,14.12
2017-10-19T19:42:37.134Z,14.04
2017-10-19T19:45:05.783Z,14.07
2017-10-19T19:47:34.157Z,14.11
2017-10-19T19:50:02.546Z,14.11
2017-10-19T19:52:31.484Z,14.09
2017-10-19T19:55:00.821Z,14.02
2017-10-19T19:57:29.246Z,13.95
2017-10-19T19:59:57.629Z,13.78
2017-10-19T20:02:25.992Z,13.45
2017-10-19T20:04:54.353Z,13.48
2017-10-19T20:07:23.311Z,13.36
2017-10-19T20:09:52.504Z,13.41
2017-10-19T20:12:20.883Z,13.44
2017-10-19T20:14:50.051Z,13.45
2017-10-19T20:17:18.976Z,13.43
2017-10-19T20:19:48.116Z,13.40
2017-10-19T20:22:16.749Z,13.30
2017-10-19T20:24:45.122Z,13.32
2017-10-19T20:27:13.488Z,13.35
2017-10-19T20:29:41.845Z,13.42
2017-10-19T20:32:10.217Z,13.42
2017-10-19T20:34:38.617Z,13.41
2017-10-19T20:37:07.052Z,13.36
2017-10-19T20:39:35.432Z,13.22
2017-10-19T20:42:03.805Z,13.21
2017-10-19T20:44:32.186Z,13.20
2017-10-19T20:47:00.581Z,13.20
2017-10-19T20:49:28.948Z,13.20
2017-10-19T20:51:57.316Z,13.19
2017-10-19T20:54:25.680Z,13.14
2017-10-19T20:56:54.040Z,13.10
2017-10-19T20:59:22.425Z,12.98
2017-10-19T21:01:50.796Z,12.90
2017-10-19T21:04:19.157Z,12.97
2017-10-19T21:06:47.533Z,12.97
2017-10-19T21:09:15.915Z,12.84
2017-10-19T21:11:44.288Z,12.81
2017-10-19T21:14:12.667Z,12.57
2017-10-19T21:16:41.344Z,12.73
2017-10-19T21:19:09.721Z,12.81
2017-10-19T21:21:38.105Z,12.88
2017-10-19T21:24:06.473Z,12.90
2017-10-19T21:26:34.855Z,12.91
2017-10-19T21:29:03.237Z,12.90
2017-10-19T21:31:31.620Z,12.94
2017-10-19T21:33:59.990Z,12.94
2017-10-19T21:36:28.385Z,12.97
2017-10-19T21:38:56.775Z,12.98
2017-10-19T21:41:25.146Z,13.00
2017-10-19T21:43:53.519Z,12.90
2017-10-19T21:46:21.887Z,12.78
2017-10-19T21:48:50.253Z,12.88
2017-10-19T21:51:18.626Z,12.89
2017-10-19T21:53:46.989Z,12.75
2017-10-19T21:56:15.364Z,12.80
2017-10-19T21:58:44.494Z,12.76
2017-10-19T22:01:12.880Z,12.75
2017-10-19T22:03:41.246Z,12.71
2017-10-19T22:06:09.613Z,12.68
2017-10-19T22:08:37.977Z,12.76
2017-10-19T22:11:06.337Z,12.78
2017-10-19T22:13:35.340Z,12.64
2017-10-19T22:16:05.070Z,12.52
2017-10-19T22:18:33.483Z,12.50
2017-10-19T22:21:01.910Z,12.55
2017-10-19T22:23:31.881Z,12.51
2017-10-19T22:26:00.250Z,12.44
2017-10-19T22:28:28.616Z,12.42
2017-10-19T22:30:56.997Z,12.43
2017-10-19T22:33:25.370Z,12.38
2017-10-19T22:35:53.746Z,12.23
2017-10-19T22:38:22.114Z,12.11
2017-10-19T22:40:50.485Z,12.03
2017-10-19T22:43:18.872Z,11.93
2017-10-19T22:45:47.260Z,11.83
2017-10-19T22:48:15.621Z,11.59
2017-10-19T22:50:44.751Z,11.91
2017-10-19T22:53:13.147Z,11.89
2017-10-19T22:55:41.510Z,11.91
2017-10-19T22:58:09.881Z,11.85
2017-10-19T23:00:38.263Z,11.80
2017-10-19T23:03:06.655Z,11.81
2017-10-19T23:05:35.030Z,11.70
2017-10-19T23:08:03.408Z,11.76
2017-10-19T23:10:31.777Z,11.69
2017-10-19T23:13:00.158Z,11.72
2017-10-19T23:15:28.535Z,11.79
2017-10-19T23:17:56.916Z,11.74
2017-10-19T23:20:25.313Z,11.89
2017-10-19T23:22:53.694Z,11.97
2017-10-19T23:25:22.077Z,11.98
2017-10-19T23:27:50.670Z,11.95
2017-10-19T23:30:19.049Z,12.08
2017-10-19T23:32:48.191Z,12.11
2017-10-19T23:35:16.553Z,12.21
2017-10-19T23:37:44.929Z,12.21
2017-10-19T23:40:13.334Z,12.17
2017-10-19T23:42:41.726Z,12.10
2017-10-19T23:45:10.104Z,12.11
2017-10-19T23:47:38.477Z,12.16
2017-10-19T23:50:06.856Z,12.18
2017-10-19T23:52:35.229Z,12.20
2017-10-19T23:55:03.607Z,12.23
2017-10-19T23:57:31.964Z,12.26
